createdAt,value
2022-07-29T00:01:54.634Z,21.20
2022-07-29T00:04:22.242Z,21.20
2022-07-29T00:06:49.671Z,21.20
2022-07-29T00:09:16.788Z,21.20
2022-07-29T00:11:44.343Z,21.10
2022-07-29T00:14:11.740Z,21.10
2022-07-29T00:16:39.184Z,21.10
2022-07-29T00:19:07.847Z,21.10
2022-07-29T00:21:35.285Z,21.10
2022-07-29T00:24:02.609Z,21.10
2022-07-29T00:26:32.615Z,21.10
2022-07-29T00:31:52.616Z,21.00
2022-07-29T00:34:38.638Z,21.00
2022-07-29T00:37:05.973Z,21.00
2022-07-29T00:39:35.040Z,21.00
2022-07-29T00:42:05.605Z,21.00
2022-07-29T00:44:37.831Z,21.00
2022-07-29T00:47:05.094Z,20.90
2022-07-29T00:49:32.272Z,20.90
2022-07-29T00:52:01.504Z,20.90
2022-07-29T00:54:30.002Z,20.90
2022-07-29T00:57:00.134Z,20.90
2022-07-29T00:59:35.205Z,20.90
2022-07-29T01:02:04.397Z,20.90
2022-07-29T01:04:33.103Z,20.90
2022-07-29T01:07:03.158Z,20.80
2022-07-29T01:09:46.294Z,20.80
2022-07-29T01:12:18.466Z,20.80
2022-07-29T01:14:47.188Z,20.80
2022-07-29T01:17:28.382Z,20.80
2022-07-29T01:19:58.316Z,20.80
2022-07-29T01:22:52.275Z,20.80
2022-07-29T01:25:40.308Z,20.80
2022-07-29T01:28:32.152Z,20.90
2022-07-29T01:31:02.025Z,20.80
2022-07-29T01:33:50.893Z,20.70
2022-07-29T01:36:51.846Z,20.70
2022-07-29T01:39:34.278Z,20.70
2022-07-29T01:42:37.092Z,20.60
2022-07-29T01:45:22.981Z,20.50
2022-07-29T01:48:31.329Z,20.50
2022-07-29T01:51:07.200Z,20.40
2022-07-29T01:53:47.559Z,20.30
2022-07-29T01:56:18.374Z,20.20
2022-07-29T01:58:48.030Z,20.20
2022-07-29T02:01:17.289Z,20.10
2022-07-29T02:03:46.721Z,20.00
2022-07-29T02:06:17.989Z,20.00
2022-07-29T02:08:46.340Z,19.90
2022-07-29T02:11:13.384Z,19.90
2022-07-29T02:13:42.204Z,19.80
2022-07-29T02:16:10.773Z,19.80
2022-07-29T02:18:40.858Z,19.70
2022-07-29T02:21:14.848Z,19.70
2022-07-29T02:23:50.443Z,19.70
2022-07-29T02:26:21.358Z,19.60
2022-07-29T02:28:51.537Z,19.60
2022-07-29T02:31:26.045Z,19.60
2022-07-29T02:33:54.902Z,19.60
2022-07-29T02:36:24.744Z,19.50
2022-07-29T02:38:52.551Z,19.50
2022-07-29T02:41:37.244Z,19.50
2022-07-29T02:44:11.570Z,19.50
2022-07-29T02:46:53.417Z,19.50
2022-07-29T02:49:47.912Z,19.40
2022-07-29T02:52:31.718Z,19.40
2022-07-29T02:55:09.851Z,19.40
2022-07-29T02:57:54.563Z,19.40
2022-07-29T03:00:28.738Z,19.40
2022-07-29T03:03:00.874Z,19.40
2022-07-29T03:05:28.949Z,19.30
2022-07-29T03:08:07.234Z,19.30
2022-07-29T03:10:35.332Z,19.30
2022-07-29T03:13:02.992Z,19.20
2022-07-29T03:15:31.032Z,19.20
2022-07-29T03:17:59.721Z,19.20
2022-07-29T03:20:27.466Z,19.20
2022-07-29T03:22:54.782Z,19.20
2022-07-29T03:25:22.756Z,19.20
2022-07-29T03:27:50.169Z,19.30
2022-07-29T03:30:21.982Z,19.30
2022-07-29T03:32:54.166Z,19.30
2022-07-29T03:35:23.793Z,19.40
2022-07-29T03:37:50.957Z,19.40
2022-07-29T03:40:36.328Z,19.40
2022-07-29T03:43:04.756Z,19.50
2022-07-29T03:45:33.159Z,19.50
2022-07-29T03:48:09.805Z,19.50
2022-07-29T03:50:37.653Z,19.50
2022-07-29T03:53:05.165Z,19.50
2022-07-29T03:55:41.345Z,19.50
2022-07-29T03:58:09.379Z,19.50
2022-07-29T04:00:38.753Z,19.50
2022-07-29T04:03:10.575Z,19.50
2022-07-29T04:05:39.228Z,19.50
2022-07-29T04:08:07.004Z,19.40
2022-07-29T04:10:34.359Z,19.40
2022-07-29T04:13:03.385Z,19.40
2022-07-29T04:15:30.888Z,19.40
2022-07-29T04:18:00.253Z,19.50
2022-07-29T04:20:27.762Z,19.50
2022-07-29T04:22:55.229Z,19.50
2022-07-29T04:25:22.270Z,19.50
2022-07-29T04:28:04.154Z,19.60
2022-07-29T04:30:32.864Z,19.70
2022-07-29T04:33:01.851Z,19.80
2022-07-29T04:35:37.992Z,19.90
2022-07-29T04:38:07.431Z,20.00
2022-07-29T04:40:42.547Z,20.00
2022-07-29T04:43:10.265Z,20.20
2022-07-29T04:45:39.754Z,20.30
2022-07-29T04:48:07.134Z,20.40
2022-07-29T04:50:34.446Z,20.50
2022-07-29T04:53:01.821Z,20.60
2022-07-29T04:55:29.265Z,20.70
2022-07-29T04:57:56.628Z,20.80
2022-07-29T05:00:28.057Z,20.90
2022-07-29T05:03:01.125Z,21.00
2022-07-29T05:05:28.341Z,21.10
2022-07-29T05:07:56.178Z,21.20
2022-07-29T05:10:23.934Z,21.30
2022-07-29T05:12:51.332Z,21.30
2022-07-29T05:15:18.825Z,21.40
2022-07-29T05:17:46.386Z,21.50
2022-07-29T05:20:13.569Z,21.50
2022-07-29T05:22:40.584Z,21.60
2022-07-29T05:25:10.082Z,21.70
2022-07-29T05:27:38.053Z,21.80
2022-07-29T05:30:06.168Z,21.90
2022-07-29T05:32:33.288Z,22.00
2022-07-29T05:35:00.436Z,22.00
2022-07-29T05:37:27.694Z,22.10
2022-07-29T05:39:57.418Z,22.20
2022-07-29T05:42:27.453Z,22.30
2022-07-29T05:44:54.703Z,22.40
2022-07-29T05:47:22.178Z,22.50
2022-07-29T05:49:50.069Z,22.50
2022-07-29T05:52:17.746Z,22.60
2022-07-29T05:54:45.132Z,22.70
2022-07-29T05:57:25.028Z,22.80
2022-07-29T05:59:52.945Z,22.80
2022-07-29T06:02:20.629Z,22.90
2022-07-29T06:04:47.843Z,22.90
2022-07-29T06:07:14.961Z,23.00
2022-07-29T06:09:42.242Z,23.00
2022-07-29T06:12:10.372Z,23.00
2022-07-29T06:14:38.874Z,23.10
2022-07-29T06:17:06.795Z,23.10
2022-07-29T06:19:37.124Z,23.10
2022-07-29T06:22:04.854Z,23.20
2022-07-29T06:24:31.977Z,23.30
2022-07-29T06:26:59.514Z,23.30
2022-07-29T06:29:26.674Z,23.40
2022-07-29T06:31:53.732Z,23.50
2022-07-29T06:34:21.063Z,23.60
2022-07-29T06:36:48.465Z,23.70
2022-07-29T06:39:17.078Z,23.80
2022-07-29T06:41:51.544Z,23.90
2022-07-29T06:44:20.158Z,24.00
2022-07-29T06:46:50.151Z,24.00
2022-07-29T06:49:17.567Z,24.10
2022-07-29T06:51:44.581Z,24.10
2022-07-29T06:54:11.806Z,24.20
2022-07-29T06:56:42.065Z,24.20
2022-07-29T06:59:11.278Z,24.20
2022-07-29T07:01:41.485Z,24.20
2022-07-29T07:04:09.756Z,24.20
2022-07-29T07:06:37.754Z,24.20
2022-07-29T07:09:05.609Z,24.20
2022-07-29T07:11:33.014Z,24.20
2022-07-29T07:14:14.423Z,24.20
2022-07-29T07:16:41.536Z,24.20
2022-07-29T07:19:08.786Z,24.20
2022-07-29T07:21:36.366Z,24.20
2022-07-29T07:24:03.892Z,24.20
2022-07-29T07:26:31.209Z,24.20
2022-07-29T07:29:01.262Z,24.20
2022-07-29T07:31:28.400Z,24.20
2022-07-29T07:33:55.893Z,24.20
2022-07-29T07:36:24.189Z,24.20
2022-07-29T07:38:51.502Z,24.20
2022-07-29T07:41:18.902Z,24.30
2022-07-29T07:43:46.092Z,24.30
2022-07-29T07:46:13.771Z,24.30
2022-07-29T07:48:41.158Z,24.40
2022-07-29T07:51:08.559Z,24.40
2022-07-29T07:53:36.098Z,24.50
2022-07-29T07:56:12.509Z,24.50
2022-07-29T07:58:40.243Z,24.50
2022-07-29T08:01:07.792Z,24.60
2022-07-29T08:03:35.503Z,24.60
2022-07-29T08:06:04.279Z,24.60
2022-07-29T08:08:31.550Z,24.70
2022-07-29T08:11:02.248Z,24.80
2022-07-29T08:13:33.072Z,24.80
2022-07-29T08:16:12.565Z,24.80
2022-07-29T08:18:42.141Z,24.90
2022-07-29T08:21:09.574Z,24.90
2022-07-29T08:23:46.880Z,25.00
2022-07-29T08:26:15.292Z,25.00
2022-07-29T08:28:51.187Z,25.00
2022-07-29T08:31:19.209Z,25.10
2022-07-29T08:33:46.841Z,25.10
2022-07-29T08:36:14.476Z,25.10
2022-07-29T08:38:41.721Z,25.20
2022-07-29T08:41:08.788Z,25.20
2022-07-29T08:43:38.653Z,25.20
2022-07-29T08:46:05.744Z,25.20
2022-07-29T08:48:33.628Z,25.20
2022-07-29T08:51:01.589Z,25.20
2022-07-29T08:53:30.491Z,25.30
2022-07-29T08:55:59.010Z,25.20
2022-07-29T08:58:28.041Z,25.30
2022-07-29T09:00:58.228Z,25.30
2022-07-29T09:03:31.335Z,25.30
2022-07-29T09:06:00.515Z,25.30
2022-07-29T09:08:28.536Z,25.30
2022-07-29T09:10:59.395Z,25.30
2022-07-29T09:13:27.228Z,25.30
2022-07-29T09:15:54.923Z,25.30
2022-07-29T09:18:37.405Z,25.40
2022-07-29T09:21:25.893Z,25.40
2022-07-29T09:24:11.230Z,25.50
2022-07-29T09:26:46.391Z,25.50
2022-07-29T09:29:17.388Z,25.60
2022-07-29T09:31:49.017Z,25.70
2022-07-29T09:34:22.762Z,25.80
2022-07-29T09:36:51.829Z,25.90
2022-07-29T09:39:36.918Z,26.00
2022-07-29T09:42:07.001Z,26.10
2022-07-29T09:44:47.635Z,26.20
2022-07-29T09:47:15.338Z,26.30
2022-07-29T09:50:01.401Z,26.40
2022-07-29T09:52:30.663Z,26.60
2022-07-29T09:55:09.134Z,26.70
2022-07-29T09:57:37.365Z,26.80
2022-07-29T10:00:09.060Z,26.90
2022-07-29T10:02:45.017Z,27.10
2022-07-29T10:05:36.056Z,27.10
2022-07-29T10:08:04.787Z,27.30
2022-07-29T10:10:35.340Z,27.40
2022-07-29T10:13:09.933Z,27.50
2022-07-29T10:15:46.332Z,27.70
2022-07-29T10:18:15.702Z,27.80
2022-07-29T10:20:42.874Z,28.00
2022-07-29T10:23:10.639Z,28.10
2022-07-29T10:25:38.027Z,28.30
2022-07-29T10:28:07.193Z,28.40
2022-07-29T10:30:34.976Z,28.50
2022-07-29T10:33:38.767Z,28.70
2022-07-29T10:36:20.333Z,28.80
2022-07-29T10:39:41.749Z,28.90
2022-07-29T10:42:33.333Z,28.90
2022-07-29T10:45:04.326Z,29.10
2022-07-29T10:47:32.407Z,29.10
2022-07-29T10:50:07.463Z,29.20
2022-07-29T10:52:55.305Z,29.30
2022-07-29T10:55:43.417Z,29.30
2022-07-29T10:58:19.820Z,29.30
2022-07-29T11:00:50.207Z,29.50
2022-07-29T11:03:52.335Z,29.50
2022-07-29T11:06:26.325Z,29.60
2022-07-29T11:09:34.789Z,29.70
2022-07-29T11:12:25.889Z,29.80
2022-07-29T11:15:02.618Z,29.90
2022-07-29T11:17:37.577Z,30.00
2022-07-29T11:20:33.896Z,30.10
2022-07-29T11:23:02.043Z,30.30
2022-07-29T11:25:50.711Z,30.40
2022-07-29T11:28:23.144Z,30.50
2022-07-29T11:30:54.859Z,30.60
2022-07-29T11:33:54.458Z,30.70
2022-07-29T11:36:28.183Z,30.90
2022-07-29T11:39:26.868Z,31.00
2022-07-29T11:42:28.523Z,31.10
2022-07-29T11:48:03.648Z,31.50
2022-07-29T11:50:36.932Z,31.70
2022-07-29T11:53:13.257Z,31.90
2022-07-29T11:55:50.772Z,32.10
2022-07-29T11:58:26.249Z,32.20
2022-07-29T12:00:55.496Z,32.30
2022-07-29T12:03:33.438Z,32.40
2022-07-29T12:06:14.019Z,32.40
2022-07-29T12:07:02.022Z,31.30
2022-07-29T12:08:44.322Z,32.40
2022-07-29T12:11:23.419Z,32.30
2022-07-29T12:13:54.713Z,32.20
2022-07-29T12:16:25.530Z,32.10
2022-07-29T12:18:58.762Z,32.00
2022-07-29T12:21:26.772Z,31.90
2022-07-29T12:24:04.829Z,31.70
2022-07-29T12:26:36.360Z,31.60
2022-07-29T12:29:04.505Z,31.40
2022-07-29T12:31:43.379Z,31.20
2022-07-29T12:34:15.039Z,30.90
2022-07-29T12:36:44.047Z,30.70
2022-07-29T12:39:13.384Z,30.60
2022-07-29T12:41:40.926Z,30.40
2022-07-29T12:44:08.103Z,30.40
2022-07-29T12:46:35.290Z,30.30
2022-07-29T12:49:04.532Z,30.20
2022-07-29T12:51:37.738Z,30.20
2022-07-29T12:54:06.600Z,30.30
2022-07-29T12:56:43.297Z,30.40
2022-07-29T12:59:20.472Z,30.50
2022-07-29T13:01:50.848Z,30.80
2022-07-29T13:04:37.490Z,31.00
2022-07-29T13:07:08.209Z,31.30
2022-07-29T13:09:48.834Z,31.60
2022-07-29T13:12:16.316Z,31.80
2022-07-29T13:14:48.933Z,31.90
2022-07-29T13:17:23.833Z,32.20
2022-07-29T13:20:10.257Z,32.30
2022-07-29T13:22:37.706Z,32.50
2022-07-29T13:25:07.715Z,32.70
2022-07-29T13:27:38.304Z,32.90
2022-07-29T13:30:09.387Z,33.10
2022-07-29T13:32:37.649Z,33.30
2022-07-29T13:35:08.958Z,33.70
2022-07-29T13:37:39.609Z,34.10
2022-07-29T13:40:10.323Z,34.60
2022-07-29T13:42:37.768Z,34.90
2022-07-29T13:45:07.550Z,35.30
2022-07-29T13:47:34.815Z,35.50
2022-07-29T13:50:02.983Z,35.70
2022-07-29T13:52:30.417Z,35.80
2022-07-29T13:54:57.594Z,36.00
2022-07-29T13:57:25.097Z,36.30
2022-07-29T13:59:54.382Z,36.50
2022-07-29T14:02:25.648Z,36.80
2022-07-29T14:04:56.607Z,36.90
2022-07-29T14:07:24.346Z,37.10
2022-07-29T14:09:52.137Z,37.10
2022-07-29T14:12:20.025Z,37.10
2022-07-29T14:14:47.522Z,37.10
2022-07-29T14:17:15.948Z,37.20
2022-07-29T14:19:43.826Z,37.20
2022-07-29T14:22:11.045Z,37.20
2022-07-29T14:24:39.177Z,37.10
2022-07-29T14:27:08.859Z,37.00
2022-07-29T14:29:39.055Z,36.80
2022-07-29T14:32:15.818Z,36.70
2022-07-29T14:34:43.521Z,36.60
2022-07-29T14:37:10.808Z,36.40
2022-07-29T14:39:43.579Z,36.30
2022-07-29T14:42:12.714Z,36.20
2022-07-29T14:44:42.571Z,36.30
2022-07-29T14:47:10.381Z,36.50
2022-07-29T14:49:38.242Z,37.00
2022-07-29T14:52:05.872Z,37.80
2022-07-29T14:54:33.477Z,38.60
2022-07-29T14:57:01.282Z,39.60
2022-07-29T14:59:28.694Z,40.50
2022-07-29T15:01:56.381Z,41.40
2022-07-29T15:04:24.052Z,42.20
2022-07-29T15:06:51.521Z,42.90
2022-07-29T15:09:18.999Z,43.60
2022-07-29T15:11:46.134Z,44.20
2022-07-29T15:14:13.169Z,44.70
2022-07-29T15:16:41.967Z,45.10
2022-07-29T15:19:11.565Z,45.50
2022-07-29T15:21:41.611Z,45.90
2022-07-29T15:24:17.474Z,46.20
2022-07-29T15:26:45.026Z,46.50
2022-07-29T15:29:12.291Z,46.70
2022-07-29T15:31:39.386Z,46.90
2022-07-29T15:34:07.735Z,47.10
2022-07-29T15:36:51.357Z,47.30
2022-07-29T15:39:21.985Z,47.30
2022-07-29T15:41:49.696Z,47.50
2022-07-29T15:44:16.832Z,47.60
2022-07-29T15:47:02.518Z,47.70
2022-07-29T15:49:47.887Z,47.90
2022-07-29T15:52:26.052Z,48.00
2022-07-29T15:54:55.620Z,48.10
2022-07-29T15:57:23.671Z,48.10
2022-07-29T15:59:51.317Z,48.10
2022-07-29T16:02:18.640Z,48.10
2022-07-29T16:04:45.842Z,48.00
2022-07-29T16:07:14.176Z,48.00
2022-07-29T16:09:42.801Z,48.00
2022-07-29T16:12:15.398Z,48.00
2022-07-29T16:14:44.363Z,48.00
2022-07-29T16:17:14.895Z,47.90
2022-07-29T16:19:44.092Z,47.80
2022-07-29T16:22:11.998Z,47.70
2022-07-29T16:24:39.527Z,47.50
2022-07-29T16:27:07.051Z,47.30
2022-07-29T16:29:34.303Z,47.00
2022-07-29T16:32:01.901Z,46.70
2022-07-29T16:34:29.769Z,46.40
2022-07-29T16:36:57.088Z,46.00
2022-07-29T16:39:24.265Z,45.80
2022-07-29T16:41:51.491Z,45.50
2022-07-29T16:44:18.634Z,45.30
2022-07-29T16:46:45.872Z,45.00
2022-07-29T16:49:19.090Z,44.80
2022-07-29T16:51:47.957Z,44.60
2022-07-29T16:54:15.391Z,44.40
2022-07-29T16:56:42.524Z,44.20
2022-07-29T16:59:09.627Z,43.90
2022-07-29T17:01:37.299Z,43.70
2022-07-29T17:04:07.185Z,43.40
2022-07-29T17:06:40.487Z,43.20
2022-07-29T17:09:09.949Z,42.90
2022-07-29T17:11:51.684Z,42.60
2022-07-29T17:14:26.898Z,42.10
2022-07-29T17:17:01.030Z,41.40
2022-07-29T17:19:35.471Z,40.70
2022-07-29T17:22:11.615Z,40.20
2022-07-29T17:24:41.090Z,39.70
2022-07-29T17:27:09.481Z,39.30
2022-07-29T17:29:37.019Z,39.00
2022-07-29T17:32:07.772Z,38.90
2022-07-29T17:34:41.112Z,38.70
2022-07-29T17:37:12.190Z,38.50
2022-07-29T17:39:41.726Z,38.30
2022-07-29T17:42:11.128Z,38.10
2022-07-29T17:44:38.817Z,37.90
2022-07-29T17:47:07.925Z,37.60
2022-07-29T17:49:44.293Z,37.30
2022-07-29T17:52:11.431Z,36.90
2022-07-29T17:54:38.543Z,36.60
2022-07-29T17:57:05.617Z,36.10
2022-07-29T17:59:32.859Z,35.60
2022-07-29T18:02:00.225Z,35.10
2022-07-29T18:04:28.914Z,34.70
2022-07-29T18:06:56.511Z,34.20
2022-07-29T18:09:23.909Z,33.80
2022-07-29T18:11:51.977Z,33.30
2022-07-29T18:14:19.200Z,32.90
2022-07-29T18:16:47.586Z,32.50
2022-07-29T18:19:14.778Z,32.20
2022-07-29T18:21:53.874Z,31.90
2022-07-29T18:24:27.459Z,31.50
2022-07-29T18:26:54.824Z,31.30
2022-07-29T18:29:22.214Z,31.00
2022-07-29T18:31:49.545Z,30.70
2022-07-29T18:34:17.244Z,30.50
2022-07-29T18:36:45.920Z,30.30
2022-07-29T18:39:20.998Z,30.10
2022-07-29T18:41:51.257Z,29.80
2022-07-29T18:44:21.691Z,29.60
2022-07-29T18:46:50.167Z,29.50
2022-07-29T18:49:17.807Z,29.30
2022-07-29T18:51:44.907Z,29.10
2022-07-29T18:54:13.428Z,28.90
2022-07-29T18:56:41.599Z,28.70
2022-07-29T18:59:08.833Z,28.60
2022-07-29T19:01:37.087Z,28.50
2022-07-29T19:04:05.493Z,28.30
2022-07-29T19:06:32.853Z,28.20
2022-07-29T19:09:00.521Z,28.00
2022-07-29T19:11:27.712Z,27.80
2022-07-29T19:13:55.155Z,27.70
2022-07-29T19:16:22.522Z,27.50
2022-07-29T19:18:49.638Z,27.40
2022-07-29T19:21:17.390Z,27.20
2022-07-29T19:24:01.845Z,27.00
2022-07-29T19:26:33.420Z,26.90
2022-07-29T19:29:00.488Z,26.70
2022-07-29T19:31:28.133Z,26.50
2022-07-29T19:33:55.422Z,26.40
2022-07-29T19:36:22.892Z,26.20
2022-07-29T19:38:50.027Z,26.10
2022-07-29T19:41:17.290Z,25.90
2022-07-29T19:43:51.993Z,25.80
2022-07-29T19:46:21.645Z,25.70
2022-07-29T19:48:49.389Z,25.50
2022-07-29T19:51:17.285Z,25.40
2022-07-29T19:53:44.454Z,25.30
2022-07-29T19:56:11.802Z,25.20
2022-07-29T19:58:40.703Z,25.10
2022-07-29T20:01:10.617Z,25.00
2022-07-29T20:03:39.998Z,25.00
2022-07-29T20:06:08.093Z,24.90
2022-07-29T20:08:35.490Z,24.90
2022-07-29T20:11:03.446Z,24.80
2022-07-29T20:13:32.984Z,24.80
2022-07-29T20:16:01.212Z,24.80
2022-07-29T20:18:28.484Z,24.70
2022-07-29T20:20:57.560Z,24.70
2022-07-29T20:23:24.986Z,24.70
2022-07-29T20:25:52.633Z,24.60
2022-07-29T20:28:28.526Z,24.60
2022-07-29T20:30:55.784Z,24.60
2022-07-29T20:33:22.929Z,24.50
2022-07-29T20:35:50.230Z,24.50
2022-07-29T20:38:18.473Z,24.50
2022-07-29T20:40:46.318Z,24.40
2022-07-29T20:43:13.623Z,24.40
2022-07-29T20:45:40.990Z,24.40
2022-07-29T20:48:08.575Z,24.40
2022-07-29T20:50:35.894Z,24.30
2022-07-29T20:53:03.415Z,24.30
2022-07-29T20:55:31.943Z,24.30
2022-07-29T20:57:59.475Z,24.30
2022-07-29T21:00:26.796Z,24.30
2022-07-29T21:02:54.302Z,24.20
2022-07-29T21:05:21.365Z,24.20
2022-07-29T21:07:48.539Z,24.20
2022-07-29T21:10:18.169Z,24.20
2022-07-29T21:12:49.270Z,24.20
2022-07-29T21:15:16.876Z,24.20
2022-07-29T21:17:47.234Z,24.10
2022-07-29T21:20:19.453Z,24.00
2022-07-29T21:22:46.789Z,23.90
2022-07-29T21:25:13.985Z,23.80
2022-07-29T21:27:59.921Z,23.70
2022-07-29T21:30:28.084Z,23.60
2022-07-29T21:32:55.543Z,23.60
2022-07-29T21:35:52.163Z,23.50
2022-07-29T21:38:09.957Z,23.50
2022-07-29T21:40:37.335Z,23.40
2022-07-29T21:43:05.010Z,23.50
2022-07-29T21:45:32.329Z,23.40
2022-07-29T21:47:59.684Z,23.40
2022-07-29T21:50:27.028Z,23.40
2022-07-29T21:52:54.385Z,23.40
2022-07-29T21:55:23.010Z,23.30
2022-07-29T21:57:56.621Z,23.20
2022-07-29T22:00:25.570Z,23.10
2022-07-29T22:02:56.009Z,23.00
2022-07-29T22:05:24.052Z,22.90
2022-07-29T22:07:55.568Z,22.80
2022-07-29T22:10:26.957Z,22.80
2022-07-29T22:12:56.494Z,22.60
2022-07-29T22:15:24.513Z,22.50
2022-07-29T22:17:52.327Z,22.40
2022-07-29T22:20:20.265Z,22.40
2022-07-29T22:22:48.208Z,22.30
2022-07-29T22:25:16.898Z,22.20
2022-07-29T22:27:44.241Z,22.20
2022-07-29T22:30:12.114Z,22.10
2022-07-29T22:32:39.442Z,22.10
2022-07-29T22:35:07.200Z,22.00
2022-07-29T22:37:34.377Z,22.00
2022-07-29T22:40:02.177Z,22.00
2022-07-29T22:42:31.733Z,22.00
2022-07-29T22:44:58.672Z,22.10
2022-07-29T22:47:46.679Z,22.10
2022-07-29T22:50:13.033Z,22.10
2022-07-29T22:52:40.337Z,22.20
2022-07-29T22:55:07.783Z,22.20
2022-07-29T22:57:34.869Z,22.20
2022-07-29T23:00:02.631Z,22.20
2022-07-29T23:02:29.894Z,22.10
2022-07-29T23:04:57.213Z,22.00
2022-07-29T23:07:24.629Z,21.90
2022-07-29T23:09:51.957Z,21.80
2022-07-29T23:12:19.048Z,21.60
2022-07-29T23:14:46.298Z,21.30
2022-07-29T23:17:13.627Z,21.10
2022-07-29T23:19:41.120Z,21.00
2022-07-29T23:22:08.481Z,20.80
2022-07-29T23:24:35.421Z,20.70
2022-07-29T23:27:02.850Z,20.60
2022-07-29T23:29:32.803Z,20.60
2022-07-29T23:32:03.581Z,20.50
2022-07-29T23:34:30.676Z,20.40
2022-07-29T23:36:57.846Z,20.40
2022-07-29T23:39:24.886Z,20.30
2022-07-29T23:41:52.628Z,20.20
2022-07-29T23:44:19.930Z,20.20
2022-07-29T23:46:46.990Z,20.10
2022-07-29T23:49:14.497Z,20.00
2022-07-29T23:51:41.589Z,19.90
2022-07-29T23:54:08.689Z,19.90
2022-07-29T23:56:35.915Z,19.90
2022-07-29T23:59:05.720Z,19.80
